sensor_id;sensor_type;location;lat;lon;timestamp;pressure;altitude;pressure_sealevel;temperature;humidity
54806;BME280;62866;55.776;37.496;2022-10-31T00:00:00;98138.88;;;1.17;69.70
54806;BME280;62866;55.776;37.496;2022-10-31T00:02:26;98124.06;;;1.16;69.20
54806;BME280;62866;55.776;37.496;2022-10-31T00:04:51;98128.00;;;1.20;69.17
54806;BME280;62866;55.776;37.496;2022-10-31T00:07:17;98115.47;;;1.22;69.11
54806;BME280;62866;55.776;37.496;2022-10-31T00:09:42;98113.50;;;1.24;68.65
54806;BME280;62866;55.776;37.496;2022-10-31T00:12:08;98103.81;;;1.24;68.76
54806;BME280;62866;55.776;37.496;2022-10-31T00:14:33;98110.50;;;1.27;68.51
54806;BME280;62866;55.776;37.496;2022-10-31T00:16:59;98113.16;;;1.27;68.95
54806;BME280;62866;55.776;37.496;2022-10-31T00:19:24;98112.53;;;1.25;68.50
54806;BME280;62866;55.776;37.496;2022-10-31T00:21:51;98093.97;;;1.10;68.28
54806;BME280;62866;55.776;37.496;2022-10-31T00:24:17;98110.56;;;1.19;68.94
54806;BME280;62866;55.776;37.496;2022-10-31T00:26:42;98102.03;;;1.17;68.12
54806;BME280;62866;55.776;37.496;2022-10-31T00:29:08;98103.00;;;1.16;68.21
54806;BME280;62866;55.776;37.496;2022-10-31T00:31:34;98106.47;;;1.16;68.22
54806;BME280;62866;55.776;37.496;2022-10-31T00:33:59;98095.78;;;1.09;68.32
54806;BME280;62866;55.776;37.496;2022-10-31T00:36:25;98103.38;;;1.04;68.49
54806;BME280;62866;55.776;37.496;2022-10-31T00:38:50;98105.69;;;1.07;68.44
54806;BME280;62866;55.776;37.496;2022-10-31T00:41:17;98106.31;;;1.09;68.53
54806;BME280;62866;55.776;37.496;2022-10-31T00:43:43;98108.78;;;1.11;68.25
54806;BME280;62866;55.776;37.496;2022-10-31T00:46:09;98093.47;;;1.14;67.90
54806;BME280;62866;55.776;37.496;2022-10-31T00:48:35;98094.59;;;1.20;68.30
54806;BME280;62866;55.776;37.496;2022-10-31T00:51:00;98090.47;;;1.18;67.51
54806;BME280;62866;55.776;37.496;2022-10-31T00:53:26;98087.50;;;1.21;68.03
54806;BME280;62866;55.776;37.496;2022-10-31T00:55:51;98089.50;;;1.19;67.48
54806;BME280;62866;55.776;37.496;2022-10-31T00:58:17;98088.84;;;1.25;66.66
54806;BME280;62866;55.776;37.496;2022-10-31T01:00:43;98094.28;;;1.15;67.31
54806;BME280;62866;55.776;37.496;2022-10-31T01:03:08;98091.50;;;1.17;67.16
54806;BME280;62866;55.776;37.496;2022-10-31T01:05:34;98087.50;;;1.21;67.22
54806;BME280;62866;55.776;37.496;2022-10-31T01:07:59;98086.69;;;1.20;66.78
54806;BME280;62866;55.776;37.496;2022-10-31T01:10:25;98077.16;;;1.19;66.94
54806;BME280;62866;55.776;37.496;2022-10-31T01:12:50;98066.13;;;1.24;67.00
54806;BME280;62866;55.776;37.496;2022-10-31T01:15:21;98082.53;;;1.26;66.83
54806;BME280;62866;55.776;37.496;2022-10-31T01:17:47;98088.50;;;1.20;67.57
54806;BME280;62866;55.776;37.496;2022-10-31T01:20:14;98090.16;;;1.21;67.83
54806;BME280;62866;55.776;37.496;2022-10-31T01:22:40;98088.19;;;1.23;68.08
54806;BME280;62866;55.776;37.496;2022-10-31T01:25:07;98081.09;;;1.23;67.96
54806;BME280;62866;55.776;37.496;2022-10-31T01:27:32;98090.97;;;1.21;68.35
54806;BME280;62866;55.776;37.496;2022-10-31T01:29:58;98092.44;;;1.24;68.80
54806;BME280;62866;55.776;37.496;2022-10-31T01:32:23;98090.97;;;1.21;69.11
54806;BME280;62866;55.776;37.496;2022-10-31T01:34:52;98106.94;;;1.20;70.58
54806;BME280;62866;55.776;37.496;2022-10-31T01:37:18;98091.16;;;1.11;72.31
54806;BME280;62866;55.776;37.496;2022-10-31T01:39:43;98109.28;;;1.06;73.71
54806;BME280;62866;55.776;37.496;2022-10-31T01:42:18;98109.47;;;0.97;75.04
54806;BME280;62866;55.776;37.496;2022-10-31T01:44:51;98107.34;;;0.92;74.60
54806;BME280;62866;55.776;37.496;2022-10-31T01:47:19;98098.31;;;0.87;75.03
54806;BME280;62866;55.776;37.496;2022-10-31T01:49:50;98113.00;;;0.73;75.63
54806;BME280;62866;55.776;37.496;2022-10-31T01:54:53;98105.78;;;0.67;78.18
54806;BME280;62866;55.776;37.496;2022-10-31T01:57:20;98102.66;;;0.63;78.38
54806;BME280;62866;55.776;37.496;2022-10-31T01:59:49;98117.94;;;0.60;78.68
54806;BME280;62866;55.776;37.496;2022-10-31T02:02:18;98119.41;;;0.54;79.43
54806;BME280;62866;55.776;37.496;2022-10-31T02:04:45;98111.84;;;0.51;79.98
54806;BME280;62866;55.776;37.496;2022-10-31T02:07:18;98115.97;;;0.54;80.42
54806;BME280;62866;55.776;37.496;2022-10-31T02:09:47;98117.13;;;0.51;80.38
54806;BME280;62866;55.776;37.496;2022-10-31T02:12:14;98120.09;;;0.48;82.29
54806;BME280;62866;55.776;37.496;2022-10-31T02:14:42;98117.94;;;0.52;84.09
54806;BME280;62866;55.776;37.496;2022-10-31T02:17:07;98120.75;;;0.50;83.91
54806;BME280;62866;55.776;37.496;2022-10-31T02:30:06;98113.69;;;0.34;86.83
54806;BME280;62866;55.776;37.496;2022-10-31T02:33:24;98102.19;;;0.27;87.80
54806;BME280;62866;55.776;37.496;2022-10-31T02:41:01;98120.56;;;0.11;89.29
54806;BME280;62866;55.776;37.496;2022-10-31T02:44:00;98116.66;;;0.07;88.69
54806;BME280;62866;55.776;37.496;2022-10-31T02:49:27;98108.41;;;0.02;89.07
54806;BME280;62866;55.776;37.496;2022-10-31T02:51:55;98107.28;;;0.05;90.40
54806;BME280;62866;55.776;37.496;2022-10-31T02:54:23;98115.81;;;0.07;90.53
54806;BME280;62866;55.776;37.496;2022-10-31T02:56:54;98109.06;;;0.04;90.88
54806;BME280;62866;55.776;37.496;2022-10-31T02:59:21;98112.22;;;-0.01;90.44
54806;BME280;62866;55.776;37.496;2022-10-31T03:02:15;98116.13;;;0.04;90.88
54806;BME280;62866;55.776;37.496;2022-10-31T03:07:42;98115.47;;;0.10;92.37
54806;BME280;62866;55.776;37.496;2022-10-31T03:15:26;98118.28;;;0.08;92.97
54806;BME280;62866;55.776;37.496;2022-10-31T03:21:13;98114.34;;;0.12;93.10
54806;BME280;62866;55.776;37.496;2022-10-31T03:23:42;98110.72;;;0.13;92.73
54806;BME280;62866;55.776;37.496;2022-10-31T03:26:09;98112.22;;;0.16;93.12
54806;BME280;62866;55.776;37.496;2022-10-31T03:28:55;98117.94;;;0.19;92.88
54806;BME280;62866;55.776;37.496;2022-10-31T03:31:26;98117.63;;;0.22;93.10
54806;BME280;62866;55.776;37.496;2022-10-31T03:33:56;98118.63;;;0.21;92.93
54806;BME280;62866;55.776;37.496;2022-10-31T03:36:25;98116.50;;;0.17;93.18
54806;BME280;62866;55.776;37.496;2022-10-31T03:38:52;98097.44;;;0.07;93.73
54806;BME280;62866;55.776;37.496;2022-10-31T03:41:21;98118.94;;;0.18;94.33
54806;BME280;62866;55.776;37.496;2022-10-31T03:44:01;98111.03;;;0.18;94.74
54806;BME280;62866;55.776;37.496;2022-10-31T03:46:29;98119.59;;;0.20;95.06
54806;BME280;62866;55.776;37.496;2022-10-31T03:48:54;98120.41;;;0.21;95.19
54806;BME280;62866;55.776;37.496;2022-10-31T03:51:43;98111.72;;;0.20;95.24
54806;BME280;62866;55.776;37.496;2022-10-31T03:54:14;98117.13;;;0.19;94.73
54806;BME280;62866;55.776;37.496;2022-10-31T03:59:25;98129.78;;;0.15;95.21
54806;BME280;62866;55.776;37.496;2022-10-31T04:01:57;98129.44;;;0.18;94.99
54806;BME280;62866;55.776;37.496;2022-10-31T04:04:27;98122.53;;;0.17;94.51
54806;BME280;62866;55.776;37.496;2022-10-31T04:06:54;98122.53;;;0.09;94.26
54806;BME280;62866;55.776;37.496;2022-10-31T04:09:21;98133.88;;;0.18;94.87
54806;BME280;62866;55.776;37.496;2022-10-31T04:11:51;98127.63;;;0.19;94.87
54806;BME280;62866;55.776;37.496;2022-10-31T04:14:18;98130.25;;;0.19;94.73
54806;BME280;62866;55.776;37.496;2022-10-31T04:16:44;98132.41;;;0.15;94.64
54806;BME280;62866;55.776;37.496;2022-10-31T04:19:11;98140.94;;;0.17;94.71
54806;BME280;62866;55.776;37.496;2022-10-31T04:21:37;98122.88;;;0.14;95.24
54806;BME280;62866;55.776;37.496;2022-10-31T04:24:02;98138.31;;;0.17;95.70
54806;BME280;62866;55.776;37.496;2022-10-31T04:26:28;98147.00;;;0.18;95.69
54806;BME280;62866;55.776;37.496;2022-10-31T04:28:53;98147.00;;;0.18;96.01
54806;BME280;62866;55.776;37.496;2022-10-31T04:31:19;98161.97;;;0.17;96.02
54806;BME280;62866;55.776;37.496;2022-10-31T04:33:45;98148.34;;;0.14;95.73
54806;BME280;62866;55.776;37.496;2022-10-31T04:36:11;98154.72;;;0.11;95.76
54806;BME280;62866;55.776;37.496;2022-10-31T04:38:37;98166.06;;;0.12;95.95
54806;BME280;62866;55.776;37.496;2022-10-31T04:41:02;98158.03;;;0.13;95.64
54806;BME280;62866;55.776;37.496;2022-10-31T04:43:28;98154.06;;;0.09;95.70
54806;BME280;62866;55.776;37.496;2022-10-31T04:45:53;98164.59;;;0.17;95.57
54806;BME280;62866;55.776;37.496;2022-10-31T04:48:19;98169.06;;;0.17;95.83
54806;BME280;62866;55.776;37.496;2022-10-31T04:50:44;98169.53;;;0.20;96.33
54806;BME280;62866;55.776;37.496;2022-10-31T04:53:10;98170.34;;;0.21;96.16
54806;BME280;62866;55.776;37.496;2022-10-31T04:55:36;98172.47;;;0.17;96.48
54806;BME280;62866;55.776;37.496;2022-10-31T04:58:02;98176.44;;;0.21;96.54
54806;BME280;62866;55.776;37.496;2022-10-31T05:00:28;98180.72;;;0.22;96.72
54806;BME280;62866;55.776;37.496;2022-10-31T05:02:55;98178.56;;;0.26;96.59
54806;BME280;62866;55.776;37.496;2022-10-31T05:05:23;98201.38;;;0.25;97.11
54806;BME280;62866;55.776;37.496;2022-10-31T05:07:49;98188.09;;;0.27;97.24
54806;BME280;62866;55.776;37.496;2022-10-31T05:10:23;98197.63;;;0.28;97.56
54806;BME280;62866;55.776;37.496;2022-10-31T05:12:59;98203.41;;;0.31;97.49
54806;BME280;62866;55.776;37.496;2022-10-31T05:15:26;98209.63;;;0.30;97.33
54806;BME280;62866;55.776;37.496;2022-10-31T05:17:53;98214.56;;;0.33;97.13
54806;BME280;62866;55.776;37.496;2022-10-31T05:20:21;98207.31;;;0.35;97.20
54806;BME280;62866;55.776;37.496;2022-10-31T05:22:49;98227.88;;;0.40;97.56
54806;BME280;62866;55.776;37.496;2022-10-31T05:25:15;98217.22;;;0.42;97.52
54806;BME280;62866;55.776;37.496;2022-10-31T05:27:41;98215.22;;;0.44;97.49
54806;BME280;62866;55.776;37.496;2022-10-31T05:30:08;98225.09;;;0.42;97.49
54806;BME280;62866;55.776;37.496;2022-10-31T05:32:44;98233.47;;;0.45;97.33
54806;BME280;62866;55.776;37.496;2022-10-31T05:35:15;98241.22;;;0.55;97.54
54806;BME280;62866;55.776;37.496;2022-10-31T05:37:41;98256.47;;;0.59;97.74
54806;BME280;62866;55.776;37.496;2022-10-31T05:40:09;98246.31;;;0.64;97.79
54806;BME280;62866;55.776;37.496;2022-10-31T05:42:35;98253.69;;;0.69;97.35
54806;BME280;62866;55.776;37.496;2022-10-31T05:45:01;98254.38;;;0.71;97.58
54806;BME280;62866;55.776;37.496;2022-10-31T05:47:27;98265.56;;;0.73;97.23
54806;BME280;62866;55.776;37.496;2022-10-31T05:49:52;98274.91;;;0.75;97.33
54806;BME280;62866;55.776;37.496;2022-10-31T05:52:18;98266.53;;;0.72;97.54
54806;BME280;62866;55.776;37.496;2022-10-31T05:54:43;98263.91;;;0.72;97.59
54806;BME280;62866;55.776;37.496;2022-10-31T05:57:09;98276.41;;;0.78;97.22
54806;BME280;62866;55.776;37.496;2022-10-31T05:59:34;98291.50;;;0.76;97.28
54806;BME280;62866;55.776;37.496;2022-10-31T06:02:00;98288.25;;;0.74;97.07
54806;BME280;62866;55.776;37.496;2022-10-31T06:04:26;98309.47;;;0.81;97.18
54806;BME280;62866;55.776;37.496;2022-10-31T06:06:51;98299.75;;;0.81;97.14
54806;BME280;62866;55.776;37.496;2022-10-31T06:09:17;98311.59;;;0.93;97.00
54806;BME280;62866;55.776;37.496;2022-10-31T06:11:42;98332.34;;;1.04;97.55
54806;BME280;62866;55.776;37.496;2022-10-31T06:14:08;98316.53;;;1.04;97.22
54806;BME280;62866;55.776;37.496;2022-10-31T06:16:33;98328.41;;;1.17;97.29
54806;BME280;62866;55.776;37.496;2022-10-31T06:18:59;98332.16;;;1.22;97.20
54806;BME280;62866;55.776;37.496;2022-10-31T06:21:25;98327.88;;;1.21;96.87
54806;BME280;62866;55.776;37.496;2022-10-31T06:23:50;98342.53;;;1.24;96.77
54806;BME280;62866;55.776;37.496;2022-10-31T06:26:16;98349.28;;;1.26;96.87
54806;BME280;62866;55.776;37.496;2022-10-31T06:28:42;98356.38;;;1.34;96.87
54806;BME280;62866;55.776;37.496;2022-10-31T06:31:07;98366.72;;;1.35;96.60
54806;BME280;62866;55.776;37.496;2022-10-31T06:33:34;98377.91;;;1.45;96.97
54806;BME280;62866;55.776;37.496;2022-10-31T06:35:59;98375.94;;;1.47;95.92
54806;BME280;62866;55.776;37.496;2022-10-31T06:38:26;98377.44;;;1.50;95.85
54806;BME280;62866;55.776;37.496;2022-10-31T06:40:52;98381.69;;;1.51;95.08
54806;BME280;62866;55.776;37.496;2022-10-31T06:43:19;98383.34;;;1.52;95.49
54806;BME280;62866;55.776;37.496;2022-10-31T06:45:44;98389.78;;;1.58;95.18
54806;BME280;62866;55.776;37.496;2022-10-31T06:48:10;98393.69;;;1.70;95.42
54806;BME280;62866;55.776;37.496;2022-10-31T06:50:35;98400.91;;;1.76;94.90
54806;BME280;62866;55.776;37.496;2022-10-31T06:53:01;98411.66;;;1.74;94.88
54806;BME280;62866;55.776;37.496;2022-10-31T06:55:27;98417.88;;;1.89;94.92
54806;BME280;62866;55.776;37.496;2022-10-31T06:57:57;98418.56;;;1.92;94.47
54806;BME280;62866;55.776;37.496;2022-10-31T07:00:23;98427.06;;;2.02;94.16
54806;BME280;62866;55.776;37.496;2022-10-31T07:03:01;98431.69;;;2.08;94.42
54806;BME280;62866;55.776;37.496;2022-10-31T07:05:27;98437.13;;;2.14;94.19
54806;BME280;62866;55.776;37.496;2022-10-31T07:07:55;98443.72;;;2.10;93.97
54806;BME280;62866;55.776;37.496;2022-10-31T07:10:21;98453.91;;;2.21;94.05
54806;BME280;62866;55.776;37.496;2022-10-31T07:12:47;98474.00;;;2.31;94.01
54806;BME280;62866;55.776;37.496;2022-10-31T07:15:13;98480.06;;;2.47;93.40
54806;BME280;62866;55.776;37.496;2022-10-31T07:17:38;98475.59;;;2.48;92.34
54806;BME280;62866;55.776;37.496;2022-10-31T07:20:04;98483.88;;;2.37;91.84
54806;BME280;62866;55.776;37.496;2022-10-31T07:22:37;98494.59;;;2.27;91.31
54806;BME280;62866;55.776;37.496;2022-10-31T07:25:03;98493.47;;;2.21;91.74
54806;BME280;62866;55.776;37.496;2022-10-31T07:27:28;98499.88;;;2.19;91.77
54806;BME280;62866;55.776;37.496;2022-10-31T07:29:54;98511.91;;;2.21;91.93
54806;BME280;62866;55.776;37.496;2022-10-31T07:32:20;98517.03;;;2.31;92.11
54806;BME280;62866;55.776;37.496;2022-10-31T07:34:45;98521.97;;;2.34;92.12
54806;BME280;62866;55.776;37.496;2022-10-31T07:37:11;98529.53;;;2.45;91.81
54806;BME280;62866;55.776;37.496;2022-10-31T07:39:36;98532.16;;;2.45;91.49
54806;BME280;62866;55.776;37.496;2022-10-31T07:42:02;98541.06;;;2.44;90.99
54806;BME280;62866;55.776;37.496;2022-10-31T07:44:27;98559.88;;;2.33;90.20
54806;BME280;62866;55.776;37.496;2022-10-31T07:46:53;98565.63;;;2.37;90.98
54806;BME280;62866;55.776;37.496;2022-10-31T07:49:18;98572.72;;;2.44;90.79
54806;BME280;62866;55.776;37.496;2022-10-31T07:51:44;98571.88;;;2.44;90.63
54806;BME280;62866;55.776;37.496;2022-10-31T07:54:09;98572.88;;;2.43;90.25
54806;BME280;62866;55.776;37.496;2022-10-31T07:56:35;98569.59;;;2.57;90.20
54806;BME280;62866;55.776;37.496;2022-10-31T07:59:00;98574.50;;;2.76;89.30
54806;BME280;62866;55.776;37.496;2022-10-31T08:01:26;98581.06;;;2.88;88.38
54806;BME280;62866;55.776;37.496;2022-10-31T08:03:51;98598.00;;;3.02;88.22
54806;BME280;62866;55.776;37.496;2022-10-31T08:06:17;98588.44;;;3.09;86.13
54806;BME280;62866;55.776;37.496;2022-10-31T08:08:42;98596.91;;;3.27;85.34
54806;BME280;62866;55.776;37.496;2022-10-31T08:11:08;98598.25;;;3.31;86.42
54806;BME280;62866;55.776;37.496;2022-10-31T08:13:33;98600.09;;;3.54;86.12
54806;BME280;62866;55.776;37.496;2022-10-31T08:15:59;98609.31;;;3.66;84.94
54806;BME280;62866;55.776;37.496;2022-10-31T08:18:29;98606.00;;;3.64;84.98
54806;BME280;62866;55.776;37.496;2022-10-31T08:20:55;98630.31;;;3.90;84.17
54806;BME280;62866;55.776;37.496;2022-10-31T08:23:21;98634.13;;;3.88;82.04
54806;BME280;62866;55.776;37.496;2022-10-31T08:25:46;98633.09;;;3.66;82.57
54806;BME280;62866;55.776;37.496;2022-10-31T08:28:13;98638.97;;;3.45;83.73
54806;BME280;62866;55.776;37.496;2022-10-31T08:30:39;98635.16;;;3.48;84.42
54806;BME280;62866;55.776;37.496;2022-10-31T08:33:12;98638.59;;;3.56;83.69
54806;BME280;62866;55.776;37.496;2022-10-31T08:35:39;98648.13;;;3.65;83.45
54806;BME280;62866;55.776;37.496;2022-10-31T08:38:05;98656.53;;;3.69;83.25
54806;BME280;62866;55.776;37.496;2022-10-31T08:40:32;98655.28;;;3.88;82.60
54806;BME280;62866;55.776;37.496;2022-10-31T08:42:59;98664.31;;;4.01;81.09
54806;BME280;62866;55.776;37.496;2022-10-31T08:45:26;98683.03;;;3.92;81.52
54806;BME280;62866;55.776;37.496;2022-10-31T08:47:52;98677.09;;;3.90;79.09
54806;BME280;62866;55.776;37.496;2022-10-31T08:50:18;98671.59;;;3.99;78.79
54806;BME280;62866;55.776;37.496;2022-10-31T08:52:43;98686.41;;;4.08;78.73
54806;BME280;62866;55.776;37.496;2022-10-31T08:55:09;98678.78;;;4.13;77.92
54806;BME280;62866;55.776;37.496;2022-10-31T08:57:34;98683.44;;;4.03;77.22
54806;BME280;62866;55.776;37.496;2022-10-31T09:00:00;98682.47;;;4.27;76.62
54806;BME280;62866;55.776;37.496;2022-10-31T09:02:26;98684.84;;;4.45;76.40
54806;BME280;62866;55.776;37.496;2022-10-31T09:04:51;98695.03;;;4.56;75.94
54806;BME280;62866;55.776;37.496;2022-10-31T09:07:16;98705.28;;;4.59;74.57
54806;BME280;62866;55.776;37.496;2022-10-31T09:09:42;98710.56;;;4.59;75.28
54806;BME280;62866;55.776;37.496;2022-10-31T09:12:07;98721.22;;;4.51;75.09
54806;BME280;62866;55.776;37.496;2022-10-31T09:14:33;98721.16;;;4.28;74.52
54806;BME280;62866;55.776;37.496;2022-10-31T09:16:58;98727.66;;;3.87;75.92
54806;BME280;62866;55.776;37.496;2022-10-31T09:19:24;98716.69;;;3.67;77.28
54806;BME280;62866;55.776;37.496;2022-10-31T09:21:52;98714.03;;;3.67;77.55
54806;BME280;62866;55.776;37.496;2022-10-31T09:24:18;98716.59;;;3.91;75.92
54806;BME280;62866;55.776;37.496;2022-10-31T09:26:44;98724.41;;;4.38;75.20
54806;BME280;62866;55.776;37.496;2022-10-31T09:29:09;98745.66;;;4.53;74.53
54806;BME280;62866;55.776;37.496;2022-10-31T09:31:35;98734.66;;;4.64;74.57
54806;BME280;62866;55.776;37.496;2022-10-31T09:34:01;98723.03;;;4.50;73.00
54806;BME280;62866;55.776;37.496;2022-10-31T09:36:26;98742.28;;;4.36;72.86
54806;BME280;62866;55.776;37.496;2022-10-31T09:38:52;98747.56;;;4.67;72.15
54806;BME280;62866;55.776;37.496;2022-10-31T09:52:41;98773.09;;;4.29;71.77
54806;BME280;62866;55.776;37.496;2022-10-31T09:55:13;98784.72;;;4.20;73.29
54806;BME280;62866;55.776;37.496;2022-10-31T09:57:40;98776.47;;;4.46;73.34
54806;BME280;62866;55.776;37.496;2022-10-31T10:00:15;98802.00;;;4.92;72.50
54806;BME280;62866;55.776;37.496;2022-10-31T10:05:17;98805.66;;;4.91;71.53
54806;BME280;62866;55.776;37.496;2022-10-31T10:08:20;98816.44;;;5.27;71.40
54806;BME280;62866;55.776;37.496;2022-10-31T10:21:41;98838.22;;;4.69;71.94
54806;BME280;62866;55.776;37.496;2022-10-31T10:29:41;98852.56;;;5.51;70.10
54806;BME280;62866;55.776;37.496;2022-10-31T10:32:14;98846.63;;;5.64;70.15
54806;BME280;62866;55.776;37.496;2022-10-31T10:34:49;98860.09;;;5.40;69.22
54806;BME280;62866;55.776;37.496;2022-10-31T10:37:45;98858.50;;;5.08;70.90
54806;BME280;62866;55.776;37.496;2022-10-31T10:40:24;98864.03;;;4.98;71.00
54806;BME280;62866;55.776;37.496;2022-10-31T10:43:11;98867.81;;;4.73;72.56
54806;BME280;62866;55.776;37.496;2022-10-31T10:45:49;98863.22;;;4.67;74.43
54806;BME280;62866;55.776;37.496;2022-10-31T10:48:58;98876.38;;;4.83;74.75
54806;BME280;62866;55.776;37.496;2022-10-31T10:51:47;98862.56;;;4.95;75.02
54806;BME280;62866;55.776;37.496;2022-10-31T10:59:24;98865.38;;;4.94;74.89
54806;BME280;62866;55.776;37.496;2022-10-31T11:01:51;98858.97;;;4.88;75.09
54806;BME280;62866;55.776;37.496;2022-10-31T11:09:24;98837.44;;;4.61;74.52
54806;BME280;62866;55.776;37.496;2022-10-31T11:11:50;98853.03;;;4.55;74.60
54806;BME280;62866;55.776;37.496;2022-10-31T11:14:16;98853.88;;;4.48;74.17
54806;BME280;62866;55.776;37.496;2022-10-31T11:16:45;98860.00;;;4.48;74.25
54806;BME280;62866;55.776;37.496;2022-10-31T11:19:14;98859.69;;;4.51;73.49
54806;BME280;62866;55.776;37.496;2022-10-31T11:21:42;98875.41;;;4.45;73.34
54806;BME280;62866;55.776;37.496;2022-10-31T11:26:41;98868.13;;;4.47;73.71
54806;BME280;62866;55.776;37.496;2022-10-31T11:29:16;98881.72;;;4.36;73.60
54806;BME280;62866;55.776;37.496;2022-10-31T11:31:43;98884.38;;;4.28;73.38
54806;BME280;62866;55.776;37.496;2022-10-31T11:34:16;98890.69;;;4.27;73.26
54806;BME280;62866;55.776;37.496;2022-10-31T11:36:44;98893.03;;;4.13;73.00
54806;BME280;62866;55.776;37.496;2022-10-31T11:39:23;98894.72;;;3.98;72.24
54806;BME280;62866;55.776;37.496;2022-10-31T11:41:51;98877.88;;;3.91;73.04
54806;BME280;62866;55.776;37.496;2022-10-31T11:44:20;98895.06;;;3.87;73.22
54806;BME280;62866;55.776;37.496;2022-10-31T11:46:52;98883.66;;;3.87;73.25
54806;BME280;62866;55.776;37.496;2022-10-31T11:49:32;98867.34;;;3.75;73.11
54806;BME280;62866;55.776;37.496;2022-10-31T11:52:05;98895.91;;;3.88;73.02
54806;BME280;62866;55.776;37.496;2022-10-31T11:54:46;98907.63;;;3.77;72.60
54806;BME280;62866;55.776;37.496;2022-10-31T11:57:33;98903.38;;;3.68;73.22
54806;BME280;62866;55.776;37.496;2022-10-31T12:02:45;98894.63;;;3.67;73.35
54806;BME280;62866;55.776;37.496;2022-10-31T12:05:24;98898.41;;;3.65;73.56
54806;BME280;62866;55.776;37.496;2022-10-31T12:07:52;98885.19;;;3.65;73.80
54806;BME280;62866;55.776;37.496;2022-10-31T12:10:21;98867.84;;;3.54;73.86
54806;BME280;62866;55.776;37.496;2022-10-31T12:15:38;98911.13;;;3.69;74.26
54806;BME280;62866;55.776;37.496;2022-10-31T12:18:32;98920.03;;;3.68;74.39
54806;BME280;62866;55.776;37.496;2022-10-31T12:24:16;98914.13;;;3.58;74.45
54806;BME280;62866;55.776;37.496;2022-10-31T12:26:55;98912.94;;;3.53;74.77
54806;BME280;62866;55.776;37.496;2022-10-31T12:35:59;98912.28;;;3.42;75.90
54806;BME280;62866;55.776;37.496;2022-10-31T12:41:36;98906.66;;;3.29;77.57
54806;BME280;62866;55.776;37.496;2022-10-31T12:44:12;98924.31;;;3.37;78.28
54806;BME280;62866;55.776;37.496;2022-10-31T12:49:46;98932.59;;;3.34;78.09
54806;BME280;62866;55.776;37.496;2022-10-31T12:52:23;98949.44;;;3.33;78.32
54806;BME280;62866;55.776;37.496;2022-10-31T12:55:10;98950.88;;;3.19;78.16
54806;BME280;62866;55.776;37.496;2022-10-31T12:57:42;98947.78;;;3.24;78.42
54806;BME280;62866;55.776;37.496;2022-10-31T13:00:15;98930.09;;;3.16;78.79
54806;BME280;62866;55.776;37.496;2022-10-31T13:02:55;98945.59;;;3.27;78.22
54806;BME280;62866;55.776;37.496;2022-10-31T13:05:29;98958.50;;;3.30;78.44
54806;BME280;62866;55.776;37.496;2022-10-31T13:08:18;98956.03;;;3.29;77.92
54806;BME280;62866;55.776;37.496;2022-10-31T13:10:52;98970.72;;;3.31;77.48
54806;BME280;62866;55.776;37.496;2022-10-31T13:13:42;98958.81;;;3.27;77.76
54806;BME280;62866;55.776;37.496;2022-10-31T13:16:18;98976.16;;;3.30;77.51
54806;BME280;62866;55.776;37.496;2022-10-31T13:18:51;98957.34;;;3.25;77.68
54806;BME280;62866;55.776;37.496;2022-10-31T13:21:21;98976.47;;;3.27;77.39
54806;BME280;62866;55.776;37.496;2022-10-31T13:23:50;98978.31;;;3.26;77.34
54806;BME280;62866;55.776;37.496;2022-10-31T13:26:43;98992.34;;;3.27;77.22
54806;BME280;62866;55.776;37.496;2022-10-31T13:29:24;98971.38;;;3.25;77.58
54806;BME280;62866;55.776;37.496;2022-10-31T13:31:52;98987.41;;;3.32;76.81
54806;BME280;62866;55.776;37.496;2022-10-31T13:34:21;98991.03;;;3.31;77.06
54806;BME280;62866;55.776;37.496;2022-10-31T13:37:04;98986.41;;;3.25;77.27
54806;BME280;62866;55.776;37.496;2022-10-31T13:45:21;98995.66;;;3.29;77.12
54806;BME280;62866;55.776;37.496;2022-10-31T13:50:41;98996.16;;;3.24;76.81
54806;BME280;62866;55.776;37.496;2022-10-31T13:55:43;99020.94;;;3.31;76.87
54806;BME280;62866;55.776;37.496;2022-10-31T13:58:27;99030.34;;;3.34;77.11
54806;BME280;62866;55.776;37.496;2022-10-31T14:01:15;99032.16;;;3.33;76.67
54806;BME280;62866;55.776;37.496;2022-10-31T14:03:44;99035.44;;;3.35;76.95
54806;BME280;62866;55.776;37.496;2022-10-31T14:06:11;99031.50;;;3.39;77.13
54806;BME280;62866;55.776;37.496;2022-10-31T14:08:47;99025.72;;;3.36;77.00
54806;BME280;62866;55.776;37.496;2022-10-31T14:11:25;99037.25;;;3.35;76.97
54806;BME280;62866;55.776;37.496;2022-10-31T14:13:54;99041.75;;;3.34;77.31
54806;BME280;62866;55.776;37.496;2022-10-31T14:16:24;99027.22;;;3.38;77.01
54806;BME280;62866;55.776;37.496;2022-10-31T14:18:58;99043.56;;;3.34;77.03
54806;BME280;62866;55.776;37.496;2022-10-31T14:23:52;99046.00;;;3.27;77.60
54806;BME280;62866;55.776;37.496;2022-10-31T14:28:54;99039.41;;;3.31;77.51
54806;BME280;62866;55.776;37.496;2022-10-31T14:34:01;99037.75;;;3.30;77.12
54806;BME280;62866;55.776;37.496;2022-10-31T14:39:02;99057.59;;;3.34;76.69
54806;BME280;62866;55.776;37.496;2022-10-31T14:41:39;99064.19;;;3.30;76.77
54806;BME280;62866;55.776;37.496;2022-10-31T14:47:06;99076.22;;;3.25;76.54
54806;BME280;62866;55.776;37.496;2022-10-31T14:49:57;99080.69;;;3.24;77.35
54806;BME280;62866;55.776;37.496;2022-10-31T14:52:27;99085.97;;;3.24;76.95
54806;BME280;62866;55.776;37.496;2022-10-31T14:54:54;99098.19;;;3.25;77.28
54806;BME280;62866;55.776;37.496;2022-10-31T14:57:28;99085.59;;;3.19;76.47
54806;BME280;62866;55.776;37.496;2022-10-31T15:00:00;99101.28;;;3.21;76.40
54806;BME280;62866;55.776;37.496;2022-10-31T15:02:30;99106.56;;;3.21;76.76
54806;BME280;62866;55.776;37.496;2022-10-31T15:05:00;99092.38;;;3.22;76.38
54806;BME280;62866;55.776;37.496;2022-10-31T15:07:27;99081.63;;;3.15;77.06
54806;BME280;62866;55.776;37.496;2022-10-31T15:09:58;99098.78;;;3.19;76.88
54806;BME280;62866;55.776;37.496;2022-10-31T15:12:32;99089.03;;;3.12;77.15
54806;BME280;62866;55.776;37.496;2022-10-31T15:15:14;99114.09;;;3.08;77.49